sensor_id;sensor_type;location;lat;lon;timestamp;pressure;altitude;pressure_sealevel;temperature;humidity
15678;BME280;7939;50.814;6.368;2024-02-23T00:01:23;97382.50;;;12.01;57.50
15678;BME280;7939;50.814;6.368;2024-02-23T00:03:50;97398.88;;;11.97;57.61
15678;BME280;7939;50.814;6.368;2024-02-23T00:06:17;97398.63;;;12.03;58.02
15678;BME280;7939;50.814;6.368;2024-02-23T00:08:44;97415.97;;;11.96;58.18
15678;BME280;7939;50.814;6.368;2024-02-23T00:11:12;97420.53;;;11.90;57.58
15678;BME280;7939;50.814;6.368;2024-02-23T00:13:39;97427.03;;;11.97;58.65
15678;BME280;7939;50.814;6.368;2024-02-23T00:16:06;97424.69;;;11.92;58.47
15678;BME280;7939;50.814;6.368;2024-02-23T00:18:32;97427.44;;;11.87;58.45
15678;BME280;7939;50.814;6.368;2024-02-23T00:20:59;97433.59;;;11.83;58.15
15678;BME280;7939;50.814;6.368;2024-02-23T00:23:26;97428.63;;;11.79;57.21
15678;BME280;7939;50.814;6.368;2024-02-23T00:25:54;97434.00;;;11.73;57.98
15678;BME280;7939;50.814;6.368;2024-02-23T00:28:22;97444.81;;;11.79;57.92
15678;BME280;7939;50.814;6.368;2024-02-23T00:30:49;97448.13;;;11.83;58.54
15678;BME280;7939;50.814;6.368;2024-02-23T00:33:15;97448.38;;;11.75;57.58
15678;BME280;7939;50.814;6.368;2024-02-23T00:35:42;97446.31;;;11.85;58.55
15678;BME280;7939;50.814;6.368;2024-02-23T00:38:09;97443.97;;;11.79;57.89
15678;BME280;7939;50.814;6.368;2024-02-23T00:40:36;97456.84;;;11.77;57.30
15678;BME280;7939;50.814;6.368;2024-02-23T00:43:03;97447.50;;;11.76;57.47
15678;BME280;7939;50.814;6.368;2024-02-23T00:45:31;97464.72;;;11.73;57.93
15678;BME280;7939;50.814;6.368;2024-02-23T00:47:58;97458.75;;;11.72;57.67
15678;BME280;7939;50.814;6.368;2024-02-23T00:50:25;97467.97;;;11.76;58.09
15678;BME280;7939;50.814;6.368;2024-02-23T00:52:52;97478.03;;;11.81;57.92
15678;BME280;7939;50.814;6.368;2024-02-23T00:55:19;97483.53;;;11.72;58.03
15678;BME280;7939;50.814;6.368;2024-02-23T00:57:46;97483.44;;;11.73;57.84
15678;BME280;7939;50.814;6.368;2024-02-23T01:00:13;97479.88;;;11.77;58.16
15678;BME280;7939;50.814;6.368;2024-02-23T01:02:41;97484.16;;;11.77;58.53
15678;BME280;7939;50.814;6.368;2024-02-23T01:05:08;97488.63;;;11.72;58.87
15678;BME280;7939;50.814;6.368;2024-02-23T01:07:36;97493.88;;;11.69;58.71
15678;BME280;7939;50.814;6.368;2024-02-23T01:10:03;97483.63;;;11.69;58.16
15678;BME280;7939;50.814;6.368;2024-02-23T01:12:30;97489.59;;;11.69;58.75
15678;BME280;7939;50.814;6.368;2024-02-23T01:14:57;97497.91;;;11.74;58.50
15678;BME280;7939;50.814;6.368;2024-02-23T01:17:23;97488.72;;;11.70;59.33
15678;BME280;7939;50.814;6.368;2024-02-23T01:19:51;97484.50;;;11.69;59.20
15678;BME280;7939;50.814;6.368;2024-02-23T01:22:18;97473.34;;;11.70;59.33
15678;BME280;7939;50.814;6.368;2024-02-23T01:24:45;97493.88;;;11.69;59.44
15678;BME280;7939;50.814;6.368;2024-02-23T01:27:14;97501.84;;;11.61;58.50
15678;BME280;7939;50.814;6.368;2024-02-23T01:29:40;97501.59;;;11.47;57.70
15678;BME280;7939;50.814;6.368;2024-02-23T01:32:07;97510.81;;;11.51;57.91
15678;BME280;7939;50.814;6.368;2024-02-23T01:34:34;97503.00;;;11.54;59.22
15678;BME280;7939;50.814;6.368;2024-02-23T01:37:02;97505.47;;;11.57;58.80
15678;BME280;7939;50.814;6.368;2024-02-23T01:39:29;97508.75;;;11.39;57.43
15678;BME280;7939;50.814;6.368;2024-02-23T01:41:56;97506.47;;;11.31;57.99
15678;BME280;7939;50.814;6.368;2024-02-23T01:44:24;97522.22;;;11.42;58.57
15678;BME280;7939;50.814;6.368;2024-02-23T01:46:50;97528.91;;;11.46;57.95
15678;BME280;7939;50.814;6.368;2024-02-23T01:49:17;97527.41;;;11.41;58.58
15678;BME280;7939;50.814;6.368;2024-02-23T01:51:44;97513.88;;;11.39;58.45
15678;BME280;7939;50.814;6.368;2024-02-23T01:54:12;97517.28;;;11.38;58.38
15678;BME280;7939;50.814;6.368;2024-02-23T01:56:39;97514.72;;;11.38;58.09
15678;BME280;7939;50.814;6.368;2024-02-23T01:59:06;97518.06;;;11.40;58.95
15678;BME280;7939;50.814;6.368;2024-02-23T02:01:34;97513.97;;;11.35;58.87
15678;BME280;7939;50.814;6.368;2024-02-23T02:04:01;97501.31;;;11.32;58.61
15678;BME280;7939;50.814;6.368;2024-02-23T02:06:28;97514.03;;;11.34;58.05
15678;BME280;7939;50.814;6.368;2024-02-23T02:08:54;97524.19;;;11.35;58.66
15678;BME280;7939;50.814;6.368;2024-02-23T02:11:22;97527.81;;;11.30;57.75
15678;BME280;7939;50.814;6.368;2024-02-23T02:13:49;97519.47;;;11.26;57.83
15678;BME280;7939;50.814;6.368;2024-02-23T02:16:16;97520.47;;;11.22;57.85
15678;BME280;7939;50.814;6.368;2024-02-23T02:18:43;97527.00;;;11.07;57.69
15678;BME280;7939;50.814;6.368;2024-02-23T02:21:11;97526.56;;;11.18;58.06
15678;BME280;7939;50.814;6.368;2024-02-23T02:23:38;97515.28;;;11.24;58.56
15678;BME280;7939;50.814;6.368;2024-02-23T02:26:05;97517.84;;;11.24;58.04
15678;BME280;7939;50.814;6.368;2024-02-23T02:28:33;97530.31;;;11.10;57.27
15678;BME280;7939;50.814;6.368;2024-02-23T02:30:59;97530.47;;;11.06;57.40
15678;BME280;7939;50.814;6.368;2024-02-23T02:33:26;97531.47;;;11.02;56.87
15678;BME280;7939;50.814;6.368;2024-02-23T02:35:53;97522.59;;;11.11;58.25
15678;BME280;7939;50.814;6.368;2024-02-23T02:38:19;97525.03;;;11.14;57.95
15678;BME280;7939;50.814;6.368;2024-02-23T02:40:46;97520.75;;;11.15;58.59
15678;BME280;7939;50.814;6.368;2024-02-23T02:43:13;97524.22;;;11.14;58.24
15678;BME280;7939;50.814;6.368;2024-02-23T02:45:41;97546.31;;;11.15;57.29
15678;BME280;7939;50.814;6.368;2024-02-23T02:48:08;97555.72;;;11.14;57.85
15678;BME280;7939;50.814;6.368;2024-02-23T02:50:34;97539.59;;;11.12;57.65
15678;BME280;7939;50.814;6.368;2024-02-23T02:53:01;97535.56;;;11.06;57.83
15678;BME280;7939;50.814;6.368;2024-02-23T02:55:28;97531.22;;;11.08;58.06
15678;BME280;7939;50.814;6.368;2024-02-23T02:57:54;97542.09;;;11.14;58.55
15678;BME280;7939;50.814;6.368;2024-02-23T03:00:21;97550.84;;;11.08;57.95
15678;BME280;7939;50.814;6.368;2024-02-23T03:02:49;97548.16;;;11.11;57.99
15678;BME280;7939;50.814;6.368;2024-02-23T03:05:16;97545.59;;;11.11;58.59
15678;BME280;7939;50.814;6.368;2024-02-23T03:07:43;97548.28;;;11.08;57.87
15678;BME280;7939;50.814;6.368;2024-02-23T03:10:09;97547.50;;;11.06;57.78
15678;BME280;7939;50.814;6.368;2024-02-23T03:12:36;97543.78;;;11.15;58.47
15678;BME280;7939;50.814;6.368;2024-02-23T03:15:04;97540.38;;;11.14;58.41
15678;BME280;7939;50.814;6.368;2024-02-23T03:17:31;97540.84;;;11.02;57.39
15678;BME280;7939;50.814;6.368;2024-02-23T03:19:59;97542.50;;;11.03;58.15
15678;BME280;7939;50.814;6.368;2024-02-23T03:22:26;97539.06;;;11.04;57.85
15678;BME280;7939;50.814;6.368;2024-02-23T03:24:53;97553.34;;;11.10;58.61
15678;BME280;7939;50.814;6.368;2024-02-23T03:27:19;97541.44;;;11.08;57.42
15678;BME280;7939;50.814;6.368;2024-02-23T03:29:47;97547.00;;;10.96;57.88
15678;BME280;7939;50.814;6.368;2024-02-23T03:32:14;97556.28;;;10.99;57.93
15678;BME280;7939;50.814;6.368;2024-02-23T03:34:41;97550.91;;;11.06;57.74
15678;BME280;7939;50.814;6.368;2024-02-23T03:37:10;97554.31;;;11.05;57.80
15678;BME280;7939;50.814;6.368;2024-02-23T03:39:36;97560.34;;;11.04;58.18
15678;BME280;7939;50.814;6.368;2024-02-23T03:42:03;97552.66;;;11.04;57.91
15678;BME280;7939;50.814;6.368;2024-02-23T03:44:30;97552.78;;;11.01;57.60
15678;BME280;7939;50.814;6.368;2024-02-23T03:46:57;97560.41;;;11.03;58.16
15678;BME280;7939;50.814;6.368;2024-02-23T03:49:24;97549.34;;;11.02;57.65
15678;BME280;7939;50.814;6.368;2024-02-23T03:51:51;97555.28;;;11.03;58.36
15678;BME280;7939;50.814;6.368;2024-02-23T03:54:19;97553.72;;;10.99;57.73
15678;BME280;7939;50.814;6.368;2024-02-23T03:56:45;97551.53;;;10.90;57.07
15678;BME280;7939;50.814;6.368;2024-02-23T03:59:12;97568.66;;;10.88;57.29
15678;BME280;7939;50.814;6.368;2024-02-23T04:01:39;97557.31;;;10.95;58.18
15678;BME280;7939;50.814;6.368;2024-02-23T04:04:06;97559.13;;;10.91;57.56
15678;BME280;7939;50.814;6.368;2024-02-23T04:06:33;97563.19;;;10.97;57.32
15678;BME280;7939;50.814;6.368;2024-02-23T04:09:00;97560.91;;;10.89;57.30
15678;BME280;7939;50.814;6.368;2024-02-23T04:11:28;97560.78;;;10.92;57.31
15678;BME280;7939;50.814;6.368;2024-02-23T04:13:55;97559.25;;;10.88;57.18
15678;BME280;7939;50.814;6.368;2024-02-23T04:16:24;97574.59;;;10.88;57.69
15678;BME280;7939;50.814;6.368;2024-02-23T04:18:51;97572.97;;;10.86;57.81
15678;BME280;7939;50.814;6.368;2024-02-23T04:21:18;97569.50;;;10.87;57.36
15678;BME280;7939;50.814;6.368;2024-02-23T04:23:44;97569.47;;;10.88;58.08
15678;BME280;7939;50.814;6.368;2024-02-23T04:26:11;97565.91;;;10.92;57.64
15678;BME280;7939;50.814;6.368;2024-02-23T04:28:40;97558.44;;;10.88;57.82
15678;BME280;7939;50.814;6.368;2024-02-23T04:31:08;97565.41;;;10.83;57.50
15678;BME280;7939;50.814;6.368;2024-02-23T04:33:34;97572.72;;;10.92;57.58
15678;BME280;7939;50.814;6.368;2024-02-23T04:36:01;97575.56;;;10.84;57.68
15678;BME280;7939;50.814;6.368;2024-02-23T04:38:29;97578.69;;;10.92;57.69
15678;BME280;7939;50.814;6.368;2024-02-23T04:40:56;97576.41;;;10.85;57.10
15678;BME280;7939;50.814;6.368;2024-02-23T04:43:23;97567.75;;;10.89;57.85
15678;BME280;7939;50.814;6.368;2024-02-23T04:45:51;97568.59;;;10.89;57.47
15678;BME280;7939;50.814;6.368;2024-02-23T04:48:18;97578.13;;;10.84;57.47
15678;BME280;7939;50.814;6.368;2024-02-23T04:50:45;97575.56;;;10.84;57.25
15678;BME280;7939;50.814;6.368;2024-02-23T04:53:11;97572.03;;;10.88;57.66
15678;BME280;7939;50.814;6.368;2024-02-23T04:55:38;97572.28;;;10.80;57.61
15678;BME280;7939;50.814;6.368;2024-02-23T04:58:06;97567.91;;;10.84;57.98
15678;BME280;7939;50.814;6.368;2024-02-23T05:00:32;97549.41;;;10.77;57.68
15678;BME280;7939;50.814;6.368;2024-02-23T05:03:01;97558.47;;;10.86;57.82
15678;BME280;7939;50.814;6.368;2024-02-23T05:05:29;97552.88;;;10.76;57.68
15678;BME280;7939;50.814;6.368;2024-02-23T05:07:55;97544.25;;;10.79;56.97
15678;BME280;7939;50.814;6.368;2024-02-23T05:10:22;97545.88;;;10.82;57.49
15678;BME280;7939;50.814;6.368;2024-02-23T05:12:49;97551.59;;;10.88;57.58
15678;BME280;7939;50.814;6.368;2024-02-23T05:15:16;97548.44;;;10.82;57.43
15678;BME280;7939;50.814;6.368;2024-02-23T05:17:42;97549.25;;;10.82;57.60
15678;BME280;7939;50.814;6.368;2024-02-23T05:20:12;97539.28;;;10.76;57.62
15678;BME280;7939;50.814;6.368;2024-02-23T05:22:39;97537.09;;;10.65;57.08
15678;BME280;7939;50.814;6.368;2024-02-23T05:25:06;97543.72;;;10.71;57.39
15678;BME280;7939;50.814;6.368;2024-02-23T05:27:33;97536.13;;;10.68;57.20
15678;BME280;7939;50.814;6.368;2024-02-23T05:30:00;97526.53;;;10.74;57.17
15678;BME280;7939;50.814;6.368;2024-02-23T05:32:27;97524.03;;;10.73;57.06
15678;BME280;7939;50.814;6.368;2024-02-23T05:34:53;97523.38;;;10.68;57.76
15678;BME280;7939;50.814;6.368;2024-02-23T05:37:23;97525.09;;;10.67;57.07
15678;BME280;7939;50.814;6.368;2024-02-23T05:39:50;97518.38;;;10.65;57.10
15678;BME280;7939;50.814;6.368;2024-02-23T05:42:19;97526.16;;;10.62;57.68
15678;BME280;7939;50.814;6.368;2024-02-23T05:44:45;97532.06;;;10.64;57.67
15678;BME280;7939;50.814;6.368;2024-02-23T05:47:13;97509.91;;;10.64;57.64
15678;BME280;7939;50.814;6.368;2024-02-23T05:49:40;97521.94;;;10.61;56.98
15678;BME280;7939;50.814;6.368;2024-02-23T05:52:07;97512.50;;;10.63;57.62
15678;BME280;7939;50.814;6.368;2024-02-23T05:54:36;97518.09;;;10.72;58.21
15678;BME280;7939;50.814;6.368;2024-02-23T05:57:03;97512.28;;;10.69;57.67
15678;BME280;7939;50.814;6.368;2024-02-23T05:59:30;97508.53;;;10.77;57.74
15678;BME280;7939;50.814;6.368;2024-02-23T06:01:57;97508.84;;;10.70;57.47
15678;BME280;7939;50.814;6.368;2024-02-23T06:04:24;97519.88;;;10.70;57.50
15678;BME280;7939;50.814;6.368;2024-02-23T06:06:51;97507.28;;;10.66;57.93
15678;BME280;7939;50.814;6.368;2024-02-23T06:09:17;97517.63;;;10.63;57.23
15678;BME280;7939;50.814;6.368;2024-02-23T06:11:46;97529.44;;;10.65;57.86
15678;BME280;7939;50.814;6.368;2024-02-23T06:14:12;97512.91;;;10.52;56.86
15678;BME280;7939;50.814;6.368;2024-02-23T06:16:39;97515.84;;;10.65;57.47
15678;BME280;7939;50.814;6.368;2024-02-23T06:19:06;97514.84;;;10.69;58.00
15678;BME280;7939;50.814;6.368;2024-02-23T06:21:33;97513.00;;;10.72;57.75
15678;BME280;7939;50.814;6.368;2024-02-23T06:23:59;97523.09;;;10.75;58.28
15678;BME280;7939;50.814;6.368;2024-02-23T06:26:26;97526.59;;;10.73;58.12
15678;BME280;7939;50.814;6.368;2024-02-23T06:28:54;97524.88;;;10.73;58.22
15678;BME280;7939;50.814;6.368;2024-02-23T06:31:21;97536.09;;;10.69;56.97
15678;BME280;7939;50.814;6.368;2024-02-23T06:33:48;97533.50;;;10.71;57.31
15678;BME280;7939;50.814;6.368;2024-02-23T06:36:16;97532.59;;;10.72;57.65
15678;BME280;7939;50.814;6.368;2024-02-23T06:38:43;97535.22;;;10.70;57.20
15678;BME280;7939;50.814;6.368;2024-02-23T06:41:11;97539.59;;;10.67;57.21
15678;BME280;7939;50.814;6.368;2024-02-23T06:43:37;97527.56;;;10.70;57.92
15678;BME280;7939;50.814;6.368;2024-02-23T06:46:07;97535.91;;;10.74;58.23
15678;BME280;7939;50.814;6.368;2024-02-23T06:48:34;97539.50;;;10.70;58.42
15678;BME280;7939;50.814;6.368;2024-02-23T06:51:01;97531.75;;;10.71;58.37
15678;BME280;7939;50.814;6.368;2024-02-23T06:53:27;97546.94;;;10.76;58.30
15678;BME280;7939;50.814;6.368;2024-02-23T06:55:54;97535.91;;;10.74;58.20
15678;BME280;7939;50.814;6.368;2024-02-23T06:58:21;97560.41;;;10.79;58.09
15678;BME280;7939;50.814;6.368;2024-02-23T07:00:48;97560.63;;;10.73;58.15
15678;BME280;7939;50.814;6.368;2024-02-23T07:03:16;97558.88;;;10.75;58.07
15678;BME280;7939;50.814;6.368;2024-02-23T07:05:43;97560.47;;;10.78;58.29
15678;BME280;7939;50.814;6.368;2024-02-23T07:08:10;97554.59;;;10.76;57.75
15678;BME280;7939;50.814;6.368;2024-02-23T07:10:37;97552.81;;;10.78;58.33
15678;BME280;7939;50.814;6.368;2024-02-23T07:13:04;97547.69;;;10.78;58.49
15678;BME280;7939;50.814;6.368;2024-02-23T07:15:30;97543.41;;;10.78;58.02
15678;BME280;7939;50.814;6.368;2024-02-23T07:17:58;97551.03;;;10.80;58.46
15678;BME280;7939;50.814;6.368;2024-02-23T07:20:26;97555.50;;;10.75;58.06
15678;BME280;7939;50.814;6.368;2024-02-23T07:22:53;97553.69;;;10.77;57.88
15678;BME280;7939;50.814;6.368;2024-02-23T07:25:19;97554.47;;;10.79;58.40
15678;BME280;7939;50.814;6.368;2024-02-23T07:27:46;97557.16;;;10.76;58.06
15678;BME280;7939;50.814;6.368;2024-02-23T07:30:14;97551.09;;;10.78;58.08
15678;BME280;7939;50.814;6.368;2024-02-23T07:32:41;97555.28;;;10.79;58.12
15678;BME280;7939;50.814;6.368;2024-02-23T07:35:09;97572.25;;;10.82;57.89
15678;BME280;7939;50.814;6.368;2024-02-23T07:37:37;97564.69;;;10.79;58.26
15678;BME280;7939;50.814;6.368;2024-02-23T07:40:05;97571.47;;;10.80;58.47
15678;BME280;7939;50.814;6.368;2024-02-23T07:42:32;97580.91;;;10.78;58.25
15678;BME280;7939;50.814;6.368;2024-02-23T07:45:01;97567.38;;;10.76;58.33
15678;BME280;7939;50.814;6.368;2024-02-23T07:47:29;97582.56;;;10.79;58.35
15678;BME280;7939;50.814;6.368;2024-02-23T07:49:57;97571.75;;;10.72;57.74
15678;BME280;7939;50.814;6.368;2024-02-23T07:52:24;97568.41;;;10.70;57.44
15678;BME280;7939;50.814;6.368;2024-02-23T07:54:52;97558.34;;;10.66;57.36
15678;BME280;7939;50.814;6.368;2024-02-23T07:57:19;97557.38;;;10.70;57.51
15678;BME280;7939;50.814;6.368;2024-02-23T07:59:46;97568.34;;;10.72;58.32
15678;BME280;7939;50.814;6.368;2024-02-23T08:02:14;97559.81;;;10.73;58.03
15678;BME280;7939;50.814;6.368;2024-02-23T08:04:41;97551.25;;;10.74;57.77
15678;BME280;7939;50.814;6.368;2024-02-23T08:07:08;97564.00;;;10.74;57.94
15678;BME280;7939;50.814;6.368;2024-02-23T08:09:35;97567.59;;;10.70;57.48
15678;BME280;7939;50.814;6.368;2024-02-23T08:12:04;97560.69;;;10.72;57.39
15678;BME280;7939;50.814;6.368;2024-02-23T08:14:31;97570.19;;;10.68;57.53
15678;BME280;7939;50.814;6.368;2024-02-23T08:16:58;97575.97;;;10.73;57.83
15678;BME280;7939;50.814;6.368;2024-02-23T08:19:25;97577.59;;;10.76;57.81
15678;BME280;7939;50.814;6.368;2024-02-23T08:21:51;97582.69;;;10.76;57.67
15678;BME280;7939;50.814;6.368;2024-02-23T08:24:18;97579.41;;;10.72;58.29
15678;BME280;7939;50.814;6.368;2024-02-23T08:26:45;97582.25;;;10.65;58.38
15678;BME280;7939;50.814;6.368;2024-02-23T08:29:13;97595.47;;;10.76;58.52
15678;BME280;7939;50.814;6.368;2024-02-23T08:31:39;97600.88;;;10.67;57.84
15678;BME280;7939;50.814;6.368;2024-02-23T08:34:06;97589.84;;;10.66;57.89
15678;BME280;7939;50.814;6.368;2024-02-23T08:36:33;97592.03;;;10.77;58.31
15678;BME280;7939;50.814;6.368;2024-02-23T08:38:59;97603.72;;;10.59;58.17
15678;BME280;7939;50.814;6.368;2024-02-23T08:41:26;97595.94;;;10.62;57.06
15678;BME280;7939;50.814;6.368;2024-02-23T08:43:53;97583.97;;;10.64;57.36
15678;BME280;7939;50.814;6.368;2024-02-23T08:46:22;97584.63;;;10.69;57.14
15678;BME280;7939;50.814;6.368;2024-02-23T08:48:49;97596.19;;;10.79;57.76
15678;BME280;7939;50.814;6.368;2024-02-23T08:51:15;97589.34;;;10.80;57.85
15678;BME280;7939;50.814;6.368;2024-02-23T08:53:42;97598.63;;;10.83;58.01
15678;BME280;7939;50.814;6.368;2024-02-23T08:56:09;97581.41;;;10.88;57.93
15678;BME280;7939;50.814;6.368;2024-02-23T08:58:36;97588.88;;;10.94;58.34
15678;BME280;7939;50.814;6.368;2024-02-23T09:01:03;97575.50;;;10.86;57.61
15678;BME280;7939;50.814;6.368;2024-02-23T09:03:32;97576.94;;;10.93;57.39
15678;BME280;7939;50.814;6.368;2024-02-23T09:05:58;97584.34;;;11.00;58.04
15678;BME280;7939;50.814;6.368;2024-02-23T09:08:25;97577.53;;;11.01;57.89
15678;BME280;7939;50.814;6.368;2024-02-23T09:10:52;97568.78;;;11.06;58.13
15678;BME280;7939;50.814;6.368;2024-02-23T09:13:19;97573.63;;;10.91;56.66
15678;BME280;7939;50.814;6.368;2024-02-23T09:15:46;97591.13;;;11.01;57.91
15678;BME280;7939;50.814;6.368;2024-02-23T09:18:12;97585.19;;;11.01;57.66
15678;BME280;7939;50.814;6.368;2024-02-23T09:20:41;97596.34;;;10.98;57.26
15678;BME280;7939;50.814;6.368;2024-02-23T09:23:07;97590.75;;;10.89;56.25
15678;BME280;7939;50.814;6.368;2024-02-23T09:25:34;97601.34;;;11.01;57.57
15678;BME280;7939;50.814;6.368;2024-02-23T09:28:01;97588.72;;;10.97;57.48
15678;BME280;7939;50.814;6.368;2024-02-23T09:30:28;97599.69;;;11.00;56.16
15678;BME280;7939;50.814;6.368;2024-02-23T09:32:55;97592.56;;;11.08;56.98
15678;BME280;7939;50.814;6.368;2024-02-23T09:35:21;97594.75;;;11.18;57.13
15678;BME280;7939;50.814;6.368;2024-02-23T09:37:49;97602.41;;;11.19;56.69
15678;BME280;7939;50.814;6.368;2024-02-23T09:40:16;97613.38;;;11.21;56.83
15678;BME280;7939;50.814;6.368;2024-02-23T09:42:43;97608.03;;;11.27;57.69
15678;BME280;7939;50.814;6.368;2024-02-23T09:45:14;97614.06;;;11.26;57.54
15678;BME280;7939;50.814;6.368;2024-02-23T09:47:41;97612.19;;;11.30;57.04
15678;BME280;7939;50.814;6.368;2024-02-23T09:50:09;97607.88;;;11.32;56.89
15678;BME280;7939;50.814;6.368;2024-02-23T09:52:36;97612.78;;;11.37;57.81
15678;BME280;7939;50.814;6.368;2024-02-23T09:55:05;97616.84;;;11.42;57.02
15678;BME280;7939;50.814;6.368;2024-02-23T09:57:33;97624.44;;;11.44;57.93
15678;BME280;7939;50.814;6.368;2024-02-23T09:59:59;97619.41;;;11.42;56.84
15678;BME280;7939;50.814;6.368;2024-02-23T10:02:32;97621.72;;;11.48;56.86
15678;BME280;7939;50.814;6.368;2024-02-23T10:05:00;97620.78;;;11.51;57.50
15678;BME280;7939;50.814;6.368;2024-02-23T10:07:28;97621.56;;;11.53;56.74
15678;BME280;7939;50.814;6.368;2024-02-23T10:09:54;97616.44;;;11.53;56.42
15678;BME280;7939;50.814;6.368;2024-02-23T10:12:23;97613.81;;;11.54;56.33
15678;BME280;7939;50.814;6.368;2024-02-23T10:14:49;97616.38;;;11.54;56.21
15678;BME280;7939;50.814;6.368;2024-02-23T10:17:17;97614.19;;;11.45;55.70
15678;BME280;7939;50.814;6.368;2024-02-23T10:19:44;97608.88;;;11.50;56.33
15678;BME280;7939;50.814;6.368;2024-02-23T10:22:11;97617.44;;;11.49;55.95
15678;BME280;7939;50.814;6.368;2024-02-23T10:24:37;97608.56;;;11.35;54.99
15678;BME280;7939;50.814;6.368;2024-02-23T10:27:04;97620.72;;;11.52;55.67
15678;BME280;7939;50.814;6.368;2024-02-23T10:29:33;97625.19;;;11.47;55.54
15678;BME280;7939;50.814;6.368;2024-02-23T10:32:00;97627.44;;;11.55;55.85
15678;BME280;7939;50.814;6.368;2024-02-23T10:34:29;97626.75;;;11.51;55.70
15678;BME280;7939;50.814;6.368;2024-02-23T10:36:56;97629.94;;;11.56;55.64
15678;BME280;7939;50.814;6.368;2024-02-23T10:39:24;97631.66;;;11.56;55.39
15678;BME280;7939;50.814;6.368;2024-02-23T10:41:56;97614.06;;;11.48;55.28
15678;BME280;7939;50.814;6.368;2024-02-23T10:44:24;97624.88;;;11.55;56.37
15678;BME280;7939;50.814;6.368;2024-02-23T10:46:52;97630.91;;;11.54;55.10
15678;BME280;7939;50.814;6.368;2024-02-23T10:49:20;97631.63;;;11.57;56.47
15678;BME280;7939;50.814;6.368;2024-02-23T10:51:51;97641.84;;;11.57;55.83
15678;BME280;7939;50.814;6.368;2024-02-23T10:54:19;97630.06;;;11.53;55.54
15678;BME280;7939;50.814;6.368;2024-02-23T10:56:48;97621.44;;;11.56;55.71
15678;BME280;7939;50.814;6.368;2024-02-23T10:59:15;97623.06;;;11.58;55.32
15678;BME280;7939;50.814;6.368;2024-02-23T11:01:44;97627.34;;;11.58;55.67
15678;BME280;7939;50.814;6.368;2024-02-23T11:04:13;97628.16;;;11.58;54.94
15678;BME280;7939;50.814;6.368;2024-02-23T11:06:40;97628.22;;;11.57;55.52
15678;BME280;7939;50.814;6.368;2024-02-23T11:09:07;97618.59;;;11.64;55.84
15678;BME280;7939;50.814;6.368;2024-02-23T11:11:34;97632.88;;;11.69;55.43
15678;BME280;7939;50.814;6.368;2024-02-23T11:14:02;97637.34;;;11.64;55.44
15678;BME280;7939;50.814;6.368;2024-02-23T11:16:31;97631.25;;;11.67;55.00
15678;BME280;7939;50.814;6.368;2024-02-23T11:19:04;97631.84;;;11.73;55.03
15678;BME280;7939;50.814;6.368;2024-02-23T11:21:35;97620.84;;;11.71;55.07
15678;BME280;7939;50.814;6.368;2024-02-23T11:24:03;97628.69;;;11.67;54.71
15678;BME280;7939;50.814;6.368;2024-02-23T11:26:30;97644.81;;;11.69;54.37
15678;BME280;7939;50.814;6.368;2024-02-23T11:28:58;97618.28;;;11.71;54.65
15678;BME280;7939;50.814;6.368;2024-02-23T11:31:29;97631.09;;;11.71;54.98
15678;BME280;7939;50.814;6.368;2024-02-23T11:33:56;97629.22;;;11.75;55.54
15678;BME280;7939;50.814;6.368;2024-02-23T11:36:24;97636.91;;;11.75;55.23
15678;BME280;7939;50.814;6.368;2024-02-23T11:38:54;97633.88;;;11.65;54.24
15678;BME280;7939;50.814;6.368;2024-02-23T11:41:21;97638.09;;;11.66;53.99
15678;BME280;7939;50.814;6.368;2024-02-23T11:43:49;97640.59;;;11.68;54.38
15678;BME280;7939;50.814;6.368;2024-02-23T11:46:16;97636.91;;;11.75;55.29
15678;BME280;7939;50.814;6.368;2024-02-23T11:48:43;97635.38;;;11.71;54.24
15678;BME280;7939;50.814;6.368;2024-02-23T11:51:12;97638.69;;;11.73;54.15
15678;BME280;7939;50.814;6.368;2024-02-23T11:53:39;97632.41;;;11.81;55.62
15678;BME280;7939;50.814;6.368;2024-02-23T11:56:07;97636.91;;;11.75;55.38
15678;BME280;7939;50.814;6.368;2024-02-23T11:58:34;97621.50;;;11.76;54.50
15678;BME280;7939;50.814;6.368;2024-02-23T12:01:01;97629.03;;;11.79;55.40
15678;BME280;7939;50.814;6.368;2024-02-23T12:03:28;97611.97;;;11.80;54.59
15678;BME280;7939;50.814;6.368;2024-02-23T12:05:56;97617.06;;;11.80;54.68
15678;BME280;7939;50.814;6.368;2024-02-23T12:08:23;97622.06;;;11.84;54.34
15678;BME280;7939;50.814;6.368;2024-02-23T12:10:51;97615.97;;;11.87;54.24
15678;BME280;7939;50.814;6.368;2024-02-23T12:13:20;97631.22;;;11.90;54.80
15678;BME280;7939;50.814;6.368;2024-02-23T12:15:47;97631.22;;;11.90;54.30
15678;BME280;7939;50.814;6.368;2024-02-23T12:18:13;97629.59;;;11.87;54.43
15678;BME280;7939;50.814;6.368;2024-02-23T12:20:41;97630.31;;;11.91;55.07
15678;BME280;7939;50.814;6.368;2024-02-23T12:23:07;97631.91;;;11.94;55.10
15678;BME280;7939;50.814;6.368;2024-02-23T12:25:35;97631.16;;;11.92;53.56
15678;BME280;7939;50.814;6.368;2024-02-23T12:28:02;97628.59;;;11.92;54.49
15678;BME280;7939;50.814;6.368;2024-02-23T12:30:31;97622.47;;;11.96;54.99
15678;BME280;7939;50.814;6.368;2024-02-23T12:33:05;97624.13;;;11.97;53.98
15678;BME280;7939;50.814;6.368;2024-02-23T12:35:33;97630.06;;;11.97;54.11
15678;BME280;7939;50.814;6.368;2024-02-23T12:38:00;97615.53;;;11.98;53.22
15678;BME280;7939;50.814;6.368;2024-02-23T12:40:27;97606.28;;;11.95;54.05
15678;BME280;7939;50.814;6.368;2024-02-23T12:42:54;97612.09;;;11.99;53.15
15678;BME280;7939;50.814;6.368;2024-02-23T12:45:21;97615.44;;;12.01;54.50
15678;BME280;7939;50.814;6.368;2024-02-23T12:47:49;97607.69;;;12.02;54.47
15678;BME280;7939;50.814;6.368;2024-02-23T12:50:16;97621.97;;;12.08;55.40
15678;BME280;7939;50.814;6.368;2024-02-23T12:52:42;97620.25;;;12.08;54.61
15678;BME280;7939;50.814;6.368;2024-02-23T12:55:10;97615.81;;;12.12;55.03
15678;BME280;7939;50.814;6.368;2024-02-23T12:57:36;97613.38;;;12.09;53.53
15678;BME280;7939;50.814;6.368;2024-02-23T13:00:04;97622.56;;;12.14;54.37
15678;BME280;7939;50.814;6.368;2024-02-23T13:02:31;97632.78;;;12.14;54.38
15678;BME280;7939;50.814;6.368;2024-02-23T13:04:59;97622.31;;;12.21;54.50
15678;BME280;7939;50.814;6.368;2024-02-23T13:07:27;97617.44;;;12.14;54.47
15678;BME280;7939;50.814;6.368;2024-02-23T13:09:53;97622.56;;;12.14;53.03